Time,TemperatureF,DewpointF,PressureIn,WindDirection,WindDirectionDegrees,WindSpeedMPH,WindSpeedGustMPH,Humidity,HourlyPrecipIn,Conditions,Clouds,dailyrainin,SoftwareType,DateUTC
2013-01-28 00:03:00,78.5,74.0,30.03,ENE,69,11.5,11.5,86,0.00,RA,,0.00,WeatherDisplay:10.37,2013-01-28 06:03:00,
2013-01-28 00:08:00,78.6,74.4,30.03,East,88,6.0,6.0,87,0.00,RA,,0.00,WeatherDisplay:10.37,2013-01-28 06:08:00,
2013-01-28 00:13:00,78.5,74.3,30.03,ENE,61,4.6,4.6,87,0.00,CLR,,0.00,WeatherDisplay:10.37,2013-01-28 06:13:00,
2013-01-28 00:18:00,78.5,74.0,30.03,East,79,7.0,7.0,86,0.00,CLR,,0.00,WeatherDisplay:10.37,2013-01-28 06:18:00,
2013-01-28 00:23:00,78.6,74.1,30.03,NE,56,5.8,5.8,86,0.00,CLR,,0.00,WeatherDisplay:10.37,2013-01-28 06:23:00,
2013-01-28 00:28:00,78.5,73.3,30.03,ENE,62,11.5,11.5,84,0.00,CLR,,0.00,WeatherDisplay:10.37,2013-01-28 06:28:00,
2013-01-28 00:33:00,78.6,73.7,30.03,ENE,76,6.9,6.9,85,0.00,CLR,,0.00,WeatherDisplay:10.37,2013-01-28 06:33:00,
2013-01-28 00:38:00,78.5,74.0,30.03,ENE,58,8.1,8.1,86,0.00,CLR,,0.00,WeatherDisplay:10.37,2013-01-28 06:38:00,
2013-01-28 00:43:00,78.5,74.0,30.02,ENE,65,8.0,8.0,86,0.00,CLR,,0.00,WeatherDisplay:10.37,2013-01-28 06:43:00,
2013-01-28 00:48:00,78.4,73.9,30.02,ENE,62,8.1,8.1,86,0.00,CLR,,0.00,WeatherDisplay:10.37,2013-01-28 06:48:00,
2013-01-28 00:53:00,78.4,73.9,30.02,East,97,7.0,7.0,86,0.00,CLR,,0.00,WeatherDisplay:10.37,2013-01-28 06:53:00,
2013-01-28 00:58:00,78.5,74.0,30.02,ENE,76,6.9,6.9,86,0.00,CLR,,0.00,WeatherDisplay:10.37,2013-01-28 06:58:00,
2013-01-28 01:03:00,78.4,73.9,30.02,ENE,63,11.5,11.5,86,0.00,CLR,,0.00,WeatherDisplay:10.37,2013-01-28 07:03:00,
2013-01-28 01:08:00,78.3,73.8,30.02,East,100,6.9,6.9,86,0.00,CLR,,0.00,WeatherDisplay:10.37,2013-01-28 07:08:00,
2013-01-28 01:13:00,78.3,73.8,30.02,ENE,74,6.9,6.9,86,0.00,CLR,,0.00,WeatherDisplay:10.37,2013-01-28 07:13:00,
2013-01-28 01:18:00,78.3,73.4,30.02,ENE,65,9.0,9.0,85,0.00,CLR,,0.00,WeatherDisplay:10.37,2013-01-28 07:18:00,
2013-01-28 01:24:00,78.4,73.5,30.02,ENE,67,5.8,5.8,85,0.00,CLR,,0.00,WeatherDisplay:10.37,2013-01-28 07:24:00,
2013-01-28 01:29:00,78.3,73.4,30.02,East,83,10.0,10.0,85,0.00,CLR,,0.00,WeatherDisplay:10.37,2013-01-28 07:29:00,
2013-01-28 01:34:00,78.4,73.5,30.02,ENE,69,10.4,10.4,85,0.00,CLR,,0.00,WeatherDisplay:10.37,2013-01-28 07:34:00,
2013-01-28 01:39:00,78.4,73.5,30.02,ENE,68,8.1,8.1,85,0.00,CLR,,0.00,WeatherDisplay:10.37,2013-01-28 07:39:00,
2013-01-28 01:44:00,78.3,73.4,30.02,ENE,65,10.4,10.4,85,0.00,CLR,,0.00,WeatherDisplay:10.37,2013-01-28 07:44:00,
2013-01-28 01:49:00,78.3,73.4,30.01,SE,124,8.1,8.1,85,0.00,CLR,,0.00,WeatherDisplay:10.37,2013-01-28 07:49:00,
2013-01-28 01:54:00,78.2,73.3,30.01,NE,56,10.4,10.4,85,0.00,CLR,,0.00,WeatherDisplay:10.37,2013-01-28 07:54:00,
2013-01-28 01:59:00,78.2,73.3,30.01,East,95,4.6,4.6,85,0.00,CLR,,0.00,WeatherDisplay:10.37,2013-01-28 07:59:00,
2013-01-28 02:04:00,78.1,73.6,30.01,ENE,62,4.6,4.6,86,0.00,CLR,,0.00,WeatherDisplay:10.37,2013-01-28 08:04:00,
2013-01-28 02:09:00,78.1,73.6,30.01,NE,45,5.8,5.8,86,0.00,CLR,,0.00,WeatherDisplay:10.37,2013-01-28 08:09:00,
2013-01-28 02:14:00,78.1,73.6,30.01,ENE,69,5.8,5.8,86,0.00,CLR,,0.00,WeatherDisplay:10.37,2013-01-28 08:14:00,
2013-01-28 02:19:00,78.1,73.6,30.01,ENE,61,4.6,4.6,86,0.00,CLR,,0.00,WeatherDisplay:10.37,2013-01-28 08:19:00,
2013-01-28 02:24:00,78.1,73.9,30.01,ENE,64,7.0,7.0,87,0.00,CLR,,0.00,WeatherDisplay:10.37,2013-01-28 08:24:00,
2013-01-28 02:29:00,78.0,73.8,30.01,NE,56,5.8,5.8,87,0.00,CLR,,0.00,WeatherDisplay:10.37,2013-01-28 08:29:00,
2013-01-28 02:34:00,78.0,73.8,30.01,NE,41,3.5,3.5,87,0.00,CLR,,0.00,WeatherDisplay:10.37,2013-01-28 08:34:00,
2013-01-28 02:39:00,78.0,73.8,30.00,ENE,63,6.9,6.9,87,0.00,CLR,,0.00,WeatherDisplay:10.37,2013-01-28 08:39:00,
2013-01-28 02:44:00,78.0,73.8,30.01,NE,50,6.0,6.0,87,0.00,CLR,,0.00,WeatherDisplay:10.37,2013-01-28 08:44:00,
2013-01-28 02:49:00,78.1,73.9,30.00,East,91,5.0,5.0,87,0.00,CLR,,0.00,WeatherDisplay:10.37,2013-01-28 08:49:00,
2013-01-28 02:54:00,78.0,73.8,30.00,North,360,3.5,3.5,87,0.00,CLR,,0.00,WeatherDisplay:10.37,2013-01-28 08:54:00,
2013-01-28 02:59:00,77.9,73.7,30.00,ENE,72,4.6,4.6,87,0.00,CLR,,0.00,WeatherDisplay:10.37,2013-01-28 08:59:00,
2013-01-28 03:04:00,78.0,74.2,30.00,ENE,57,3.5,3.5,88,0.00,CLR,,0.00,WeatherDisplay:10.37,2013-01-28 09:04:00,
2013-01-28 03:09:00,77.9,74.1,30.00,NNE,22,4.0,4.0,88,0.00,CLR,,0.00,WeatherDisplay:10.37,2013-01-28 09:09:00,
2013-01-28 03:14:00,77.8,74.0,30.00,East,86,4.6,4.6,88,0.00,CLR,,0.00,WeatherDisplay:10.37,2013-01-28 09:14:00,
2013-01-28 03:19:00,77.9,74.1,30.00,NNE,20,2.3,2.3,88,0.00,CLR,,0.00,WeatherDisplay:10.37,2013-01-28 09:19:00,
2013-01-28 03:24:00,77.9,74.1,30.00,NE,46,4.6,4.6,88,0.00,CLR,,0.00,WeatherDisplay:10.37,2013-01-28 09:24:00,
2013-01-28 03:29:00,77.9,74.4,30.00,East,82,3.5,3.5,89,0.00,CLR,,0.00,WeatherDisplay:10.37,2013-01-28 09:29:00,
2013-01-28 03:34:00,77.9,74.7,30.00,NNE,32,6.9,6.9,90,0.00,CLR,,0.00,WeatherDisplay:10.37,2013-01-28 09:34:00,
2013-01-28 03:39:00,77.8,74.6,30.00,ENE,63,2.3,2.3,90,0.00,CLR,,0.00,WeatherDisplay:10.37,2013-01-28 09:39:00,
2013-01-28 03:44:00,77.7,74.5,30.01,ENE,61,2.3,2.3,90,0.00,CLR,,0.00,WeatherDisplay:10.37,2013-01-28 09:44:00,
2013-01-28 03:49:00,77.6,74.4,30.00,ENE,72,3.5,3.5,90,0.00,CLR,,0.00,WeatherDisplay:10.37,2013-01-28 09:49:00,
2013-01-28 03:54:00,77.6,74.4,30.01,East,88,3.5,3.5,90,0.00,CLR,,0.00,WeatherDisplay:10.37,2013-01-28 09:54:00,
2013-01-28 03:59:00,77.6,74.4,30.01,ENE,60,3.5,3.5,90,0.00,CLR,,0.00,WeatherDisplay:10.37,2013-01-28 09:59:00,
2013-01-28 04:04:00,77.6,74.4,30.01,ENE,65,5.8,5.8,90,0.00,CLR,,0.00,WeatherDisplay:10.37,2013-01-28 10:04:00,
2013-01-28 04:09:00,77.6,74.4,30.01,NE,38,4.6,4.6,90,0.00,CLR,,0.00,WeatherDisplay:10.37,2013-01-28 10:09:00,
2013-01-28 04:14:00,77.6,74.1,30.01,ENE,67,3.5,3.5,89,0.00,CLR,,0.00,WeatherDisplay:10.37,2013-01-28 10:14:00,
2013-01-28 04:19:00,77.6,74.4,30.01,ENE,60,3.5,3.5,90,0.00,CLR,,0.00,WeatherDisplay:10.37,2013-01-28 10:19:00,
2013-01-28 04:24:00,77.6,74.4,30.01,NE,34,3.0,3.0,90,0.00,CLR,,0.00,WeatherDisplay:10.37,2013-01-28 10:24:00,
2013-01-28 04:29:00,77.6,74.4,30.01,East,92,3.5,3.5,90,0.00,CLR,,0.00,WeatherDisplay:10.37,2013-01-28 10:29:00,
2013-01-28 04:34:00,77.7,74.5,30.01,ENE,70,4.6,4.6,90,0.00,CLR,,0.00,WeatherDisplay:10.37,2013-01-28 10:34:00,
2013-01-28 04:39:00,77.7,74.2,30.01,NE,56,5.8,5.8,89,0.00,CLR,,0.00,WeatherDisplay:10.37,2013-01-28 10:39:00,
2013-01-28 04:44:00,77.7,74.2,30.01,ENE,70,7.0,7.0,89,0.00,CLR,,0.00,WeatherDisplay:10.37,2013-01-28 10:44:00,
2013-01-28 04:49:00,77.8,74.3,30.01,ENE,65,3.5,3.5,89,0.00,CLR,,0.00,WeatherDisplay:10.37,2013-01-28 10:49:00,
2013-01-28 04:54:00,77.8,74.3,30.01,ENE,70,4.0,4.0,89,0.00,CLR,,0.00,WeatherDisplay:10.37,2013-01-28 10:54:00,
2013-01-28 04:59:00,77.8,74.3,30.02,ENE,66,4.0,4.0,89,0.00,CLR,,0.00,WeatherDisplay:10.37,2013-01-28 10:59:00,
2013-01-28 05:04:00,77.9,74.4,30.02,NNW,341,2.0,2.0,89,0.00,CLR,,0.00,WeatherDisplay:10.37,2013-01-28 11:04:00,
2013-01-28 05:09:00,77.9,74.4,30.02,NE,39,5.8,5.8,89,0.00,CLR,,0.00,WeatherDisplay:10.37,2013-01-28 11:09:00,
2013-01-28 05:14:00,78.0,74.5,30.02,ENE,67,5.8,5.8,89,0.00,CLR,,0.00,WeatherDisplay:10.37,2013-01-28 11:14:00,
2013-01-28 05:19:00,77.9,74.4,30.02,NE,53,9.2,9.2,89,0.00,CLR,,0.00,WeatherDisplay:10.37,2013-01-28 11:19:00,
2013-01-28 05:24:00,77.7,74.2,30.02,ENE,72,3.5,3.5,89,0.00,CLR,,0.00,WeatherDisplay:10.37,2013-01-28 11:24:00,
2013-01-28 05:29:00,77.6,74.1,30.02,NNE,13,4.6,4.6,89,0.00,CLR,,0.00,WeatherDisplay:10.37,2013-01-28 11:29:00,
2013-01-28 05:34:00,77.4,73.6,30.02,NE,44,2.3,2.3,88,0.00,CLR,,0.00,WeatherDisplay:10.37,2013-01-28 11:34:00,
2013-01-28 05:39:00,77.2,73.4,30.03,ENE,57,3.5,3.5,88,0.00,CLR,,0.00,WeatherDisplay:10.37,2013-01-28 11:39:00,
2013-01-28 05:44:00,77.1,73.6,30.03,NE,49,3.5,3.5,89,0.00,CLR,,0.00,WeatherDisplay:10.37,2013-01-28 11:44:00,
2013-01-28 05:49:00,77.1,73.6,30.03,NE,34,1.0,1.3,89,0.00,CLR,,0.00,WeatherDisplay:10.37,2013-01-28 11:49:00,
2013-01-28 05:54:00,77.1,73.9,30.03,NE,53,2.3,2.3,90,0.00,CLR,,0.00,WeatherDisplay:10.37,2013-01-28 11:54:00,
2013-01-28 05:59:00,77.2,74.0,30.03,NE,46,4.6,4.6,90,0.00,CLR,,0.00,WeatherDisplay:10.37,2013-01-28 11:59:00,
2013-01-28 06:04:00,77.2,73.7,30.03,ENE,62,3.5,3.5,89,0.00,CLR,,0.00,WeatherDisplay:10.37,2013-01-28 12:04:00,
2013-01-28 06:09:00,77.2,74.0,30.03,NE,50,3.5,3.5,90,0.00,CLR,,0.00,WeatherDisplay:10.37,2013-01-28 12:09:00,
2013-01-28 06:14:00,77.1,73.9,30.03,ENE,71,4.6,4.6,90,0.00,CLR,,0.00,WeatherDisplay:10.37,2013-01-28 12:14:00,
2013-01-28 06:19:00,77.1,73.9,30.04,ENE,62,3.5,3.5,90,0.00,CLR,,0.00,WeatherDisplay:10.37,2013-01-28 12:19:00,
2013-01-28 06:25:00,77.0,73.8,30.04,ENE,75,2.3,2.3,90,0.00,CLR,,0.00,WeatherDisplay:10.37,2013-01-28 12:25:00,
2013-01-28 06:30:00,77.2,74.3,30.04,ENE,66,1.0,4.0,91,0.00,CLR,,0.00,WeatherDisplay:10.37,2013-01-28 12:30:00,
2013-01-28 06:35:00,77.5,74.3,30.04,NE,42,1.1,1.1,90,0.00,CLR,,0.00,WeatherDisplay:10.37,2013-01-28 12:35:00,
2013-01-28 06:40:00,77.8,74.6,30.04,NE,56,3.5,3.5,90,0.00,CLR,,0.00,WeatherDisplay:10.37,2013-01-28 12:40:00,
2013-01-28 06:45:00,78.3,74.8,30.04,ENE,58,1.0,7.0,89,0.00,CLR,,0.00,WeatherDisplay:10.37,2013-01-28 12:45:00,
2013-01-28 06:50:00,78.9,75.4,30.05,ENE,67,1.1,1.1,89,0.00,CLR,,0.00,WeatherDisplay:10.37,2013-01-28 12:50:00,
2013-01-28 06:55:00,79.4,75.5,30.05,ENE,62,2.0,7.0,88,0.00,CLR,,0.00,WeatherDisplay:10.37,2013-01-28 12:55:00,
2013-01-28 07:00:00,79.6,75.0,30.05,ENE,72,3.0,8.0,86,0.00,CLR,,0.00,WeatherDisplay:10.37,2013-01-28 13:00:00,
2013-01-28 07:05:00,79.6,75.0,30.05,East,91,8.1,8.1,86,0.00,CLR,,0.00,WeatherDisplay:10.37,2013-01-28 13:05:00,
2013-01-28 07:10:00,79.7,75.2,30.05,ENE,73,5.0,8.0,86,0.00,CLR,,0.00,WeatherDisplay:10.37,2013-01-28 13:10:00,
2013-01-28 07:15:00,79.9,75.3,30.05,ENE,67,5.0,7.0,86,0.00,CLR,,0.00,WeatherDisplay:10.37,2013-01-28 13:15:00,
2013-01-28 07:20:00,79.9,75.3,30.05,ENE,72,7.0,7.0,86,0.00,CLR,,0.00,WeatherDisplay:10.37,2013-01-28 13:20:00,
2013-01-28 07:25:00,79.9,75.0,30.05,ENE,72,5.0,8.0,85,0.00,CLR,,0.00,WeatherDisplay:10.37,2013-01-28 13:25:00,
2013-01-28 07:30:00,80.0,75.1,30.06,ENE,62,9.2,9.2,85,0.00,CLR,,0.00,WeatherDisplay:10.37,2013-01-28 13:30:00,
2013-01-28 07:35:00,80.2,75.3,30.06,NE,54,6.9,6.9,85,0.00,CLR,,0.00,WeatherDisplay:10.37,2013-01-28 13:35:00,
2013-01-28 07:40:00,80.5,75.2,30.06,ENE,69,7.0,9.0,84,0.00,CLR,,0.00,WeatherDisplay:10.37,2013-01-28 13:40:00,
2013-01-28 07:45:00,80.6,75.3,30.06,ENE,64,6.9,6.9,84,0.00,CLR,,0.00,WeatherDisplay:10.37,2013-01-28 13:45:00,
2013-01-28 07:50:00,80.5,75.2,30.06,ESE,104,9.2,9.2,84,0.00,CLR,,0.00,WeatherDisplay:10.37,2013-01-28 13:50:00,
2013-01-28 07:55:00,80.7,75.4,30.06,East,87,3.0,10.0,84,0.00,CLR,,0.00,WeatherDisplay:10.37,2013-01-28 13:55:00,
2013-01-28 08:00:00,80.7,75.1,30.06,ENE,65,9.2,9.2,83,0.00,CLR,,0.00,WeatherDisplay:10.37,2013-01-28 14:00:00,
2013-01-28 08:05:00,80.8,75.5,30.07,East,80,3.0,8.0,84,0.00,CLR,,0.00,WeatherDisplay:10.37,2013-01-28 14:05:00,
2013-01-28 08:10:00,80.8,75.1,30.07,ENE,77,5.0,8.0,83,0.00,CLR,,0.00,WeatherDisplay:10.37,2013-01-28 14:10:00,
2013-01-28 08:15:00,80.8,75.2,30.07,East,100,9.2,9.2,83,0.00,CLR,,0.00,WeatherDisplay:10.37,2013-01-28 14:15:00,
2013-01-28 08:20:00,80.5,74.5,30.07,WSW,238,9.2,9.2,82,0.00,CLR,,0.00,WeatherDisplay:10.37,2013-01-28 14:20:00,
2013-01-28 08:25:00,80.5,74.1,30.07,ENE,73,10.4,10.4,81,0.00,CLR,,0.00,WeatherDisplay:10.37,2013-01-28 14:25:00,
2013-01-28 08:30:00,80.5,74.5,30.07,ENE,76,10.4,10.4,82,0.00,CLR,,0.00,WeatherDisplay:10.37,2013-01-28 14:30:00,
2013-01-28 08:35:00,80.9,74.6,30.07,ENE,73,3.0,8.0,81,0.00,CLR,,0.00,WeatherDisplay:10.37,2013-01-28 14:35:00,
2013-01-28 08:40:00,80.8,74.0,30.07,ENE,75,8.1,8.1,80,0.00,CLR,,0.00,WeatherDisplay:10.37,2013-01-28 14:40:00,
2013-01-28 08:45:00,80.8,74.0,30.07,ENE,63,5.8,6.1,80,0.00,CLR,,0.00,WeatherDisplay:10.37,2013-01-28 14:45:00,
2013-01-28 08:50:00,80.7,74.3,30.07,ENE,73,7.0,12.0,81,0.00,CLR,,0.00,WeatherDisplay:10.37,2013-01-28 14:50:00,
2013-01-28 08:55:00,80.7,74.4,30.07,ENE,74,8.0,10.0,81,0.00,CLR,,0.00,WeatherDisplay:10.37,2013-01-28 14:55:00,
2013-01-28 09:00:00,80.7,74.7,30.08,ENE,78,6.0,12.0,82,0.00,CLR,,0.00,WeatherDisplay:10.37,2013-01-28 15:00:00,
2013-01-28 09:05:00,80.8,74.4,30.08,ENE,78,7.0,12.0,81,0.00,CLR,,0.00,WeatherDisplay:10.37,2013-01-28 15:05:00,
2013-01-28 09:10:00,80.9,74.1,30.08,ENE,70,9.0,9.0,80,0.00,CLR,,0.00,WeatherDisplay:10.37,2013-01-28 15:10:00,
2013-01-28 09:15:00,80.7,74.7,30.08,ENE,62,9.2,9.2,82,0.00,CLR,,0.00,WeatherDisplay:10.37,2013-01-28 15:15:00,
2013-01-28 09:20:00,81.1,74.7,30.08,ENE,70,9.0,9.0,81,0.00,CLR,,0.00,WeatherDisplay:10.37,2013-01-28 15:20:00,
2013-01-28 09:25:00,80.6,74.2,30.08,ENE,77,10.4,10.4,81,0.00,CLR,,0.00,WeatherDisplay:10.37,2013-01-28 15:25:00,
2013-01-28 09:30:00,80.7,74.3,30.08,ENE,67,8.1,8.1,81,0.00,CLR,,0.00,WeatherDisplay:10.37,2013-01-28 15:30:00,
2013-01-28 09:35:00,80.5,74.1,30.08,ENE,65,10.4,10.4,81,0.00,CLR,,0.00,WeatherDisplay:10.37,2013-01-28 15:35:00,
2013-01-28 09:43:00,81.3,74.5,30.08,ENE,63,6.0,0.0,80,0.00,CLR,,0.00,WeatherDisplay:10.37,2013-01-28 15:43:00,
2013-01-28 09:48:00,81.0,74.6,30.08,ENE,63,8.1,8.2,81,0.00,CLR,,0.00,WeatherDisplay:10.37,2013-01-28 15:48:00,
2013-01-28 09:53:00,81.0,74.2,30.08,ENE,63,11.5,11.5,80,0.00,CLR,,0.00,WeatherDisplay:10.37,2013-01-28 15:53:00,
2013-01-28 09:58:00,80.6,74.6,30.07,East,86,8.1,8.1,82,0.00,CLR,,0.00,WeatherDisplay:10.37,2013-01-28 15:58:00,
2013-01-28 10:01:00,80.8,74.8,30.08,ENE,63,8.1,8.1,82,0.00,CLR,,0.00,WeatherDisplay:10.37,2013-01-28 16:01:00,
2013-01-28 10:03:00,80.8,74.8,30.08,ENE,63,8.1,8.1,82,0.00,CLR,,0.00,WeatherDisplay:10.37,2013-01-28 16:03:00,
2013-01-28 10:08:00,80.8,74.8,30.08,ENE,63,8.1,8.1,82,0.00,CLR,,0.00,WeatherDisplay:10.37,2013-01-28 16:08:00,
2013-01-28 10:13:00,81.0,75.0,30.08,ESE,105,8.1,8.1,82,0.00,CLR,,0.00,WeatherDisplay:10.37,2013-01-28 16:13:00,
2013-01-28 10:18:00,81.2,74.8,30.07,East,80,9.2,9.2,81,0.00,CLR,,0.00,WeatherDisplay:10.37,2013-01-28 16:18:00,
2013-01-28 10:24:00,81.0,75.0,30.07,ESE,106,9.2,9.2,82,0.00,CLR,,0.00,WeatherDisplay:10.37,2013-01-28 16:24:00,
2013-01-28 10:29:00,81.2,74.8,30.07,ENE,58,10.4,10.4,81,0.00,CLR,,0.00,WeatherDisplay:10.37,2013-01-28 16:29:00,
2013-01-28 10:34:00,81.6,75.6,30.07,ENE,63,6.9,6.9,82,0.00,CLR,,0.00,WeatherDisplay:10.37,2013-01-28 16:34:00,
2013-01-28 10:39:00,81.9,74.7,30.07,NNE,27,8.1,8.8,79,0.00,CLR,,0.00,WeatherDisplay:10.37,2013-01-28 16:39:00,
2013-01-28 10:44:00,82.3,75.5,30.07,ENE,70,6.9,6.9,80,0.00,CLR,,0.00,WeatherDisplay:10.37,2013-01-28 16:44:00,
2013-01-28 10:49:00,82.1,74.9,30.06,ENE,60,11.5,11.5,79,0.00,CLR,,0.00,WeatherDisplay:10.37,2013-01-28 16:49:00,
2013-01-28 10:54:00,82.1,75.3,30.06,East,85,9.2,9.2,80,0.00,CLR,,0.00,WeatherDisplay:10.37,2013-01-28 16:54:00,
2013-01-28 10:59:00,82.1,74.9,30.06,NE,41,13.0,13.0,79,0.00,CLR,,0.00,WeatherDisplay:10.37,2013-01-28 16:59:00,
2013-01-28 11:04:00,82.3,75.1,30.06,East,84,8.1,8.1,79,0.00,CLR,,0.00,WeatherDisplay:10.37,2013-01-28 17:04:00,
2013-01-28 11:09:00,82.7,75.1,30.06,East,79,11.5,11.5,78,0.00,CLR,,0.00,WeatherDisplay:10.37,2013-01-28 17:09:00,
2013-01-28 11:14:00,82.8,75.2,30.05,ENE,63,11.5,11.5,78,0.00,CLR,,0.00,WeatherDisplay:10.37,2013-01-28 17:14:00,
2013-01-28 11:19:00,83.0,75.0,30.05,NE,49,10.4,10.4,77,0.00,CLR,,0.00,WeatherDisplay:10.37,2013-01-28 17:19:00,
2013-01-28 11:24:00,83.3,75.7,30.05,ENE,72,10.4,10.4,78,0.00,CLR,,0.00,WeatherDisplay:10.37,2013-01-28 17:24:00,
2013-01-28 11:29:00,83.7,75.3,30.05,NNE,30,17.3,17.3,76,0.00,CLR,,0.00,WeatherDisplay:10.37,2013-01-28 17:29:00,
2013-01-28 11:34:00,83.4,75.4,30.05,NNE,23,11.5,11.5,77,0.00,CLR,,0.00,WeatherDisplay:10.37,2013-01-28 17:34:00,
2013-01-28 11:39:00,83.1,75.1,30.04,NE,51,15.0,15.0,77,0.00,CLR,,0.00,WeatherDisplay:10.37,2013-01-28 17:39:00,
2013-01-28 11:44:00,83.2,75.2,30.04,ENE,77,11.5,11.5,77,0.00,CLR,,0.00,WeatherDisplay:10.37,2013-01-28 17:44:00,
2013-01-28 11:49:00,83.2,75.2,30.04,ENE,77,11.5,11.5,77,0.00,CLR,,0.00,WeatherDisplay:10.37,2013-01-28 17:49:00,
2013-01-28 11:54:00,83.6,75.6,30.04,NE,41,13.0,13.0,77,0.00,CLR,,0.00,WeatherDisplay:10.37,2013-01-28 17:54:00,
2013-01-28 11:59:00,83.8,75.8,30.03,East,89,7.0,7.0,77,0.00,CLR,,0.00,WeatherDisplay:10.37,2013-01-28 17:59:00,
2013-01-28 12:04:00,83.8,75.8,30.03,NE,46,11.5,11.5,77,0.00,CLR,,0.00,WeatherDisplay:10.37,2013-01-28 18:04:00,
2013-01-28 12:09:00,84.1,76.1,30.03,ENE,72,11.0,11.0,77,0.00,CLR,,0.00,WeatherDisplay:10.37,2013-01-28 18:09:00,
2013-01-28 12:14:00,83.7,75.7,30.02,NE,47,10.4,10.4,77,0.00,CLR,,0.00,WeatherDisplay:10.37,2013-01-28 18:14:00,
2013-01-28 12:19:00,83.9,75.9,30.02,NE,43,13.8,13.8,77,0.00,CLR,,0.00,WeatherDisplay:10.37,2013-01-28 18:19:00,
2013-01-28 12:24:00,83.8,75.8,30.02,NE,54,12.7,12.7,77,0.00,CLR,,0.00,WeatherDisplay:10.37,2013-01-28 18:24:00,
2013-01-28 12:29:00,83.7,75.3,30.02,NNE,23,16.1,16.1,76,0.00,CLR,,0.00,WeatherDisplay:10.37,2013-01-28 18:29:00,
2013-01-28 12:34:00,83.5,75.9,30.02,North,6,13.8,13.8,78,0.00,CLR,,0.00,WeatherDisplay:10.37,2013-01-28 18:34:00,
2013-01-28 12:39:00,83.5,75.9,30.02,ENE,63,10.4,10.4,78,0.00,CLR,,0.00,WeatherDisplay:10.37,2013-01-28 18:39:00,
2013-01-28 12:44:00,83.4,75.8,30.01,NE,51,15.0,15.0,78,0.00,CLR,,0.00,WeatherDisplay:10.37,2013-01-28 18:44:00,
2013-01-28 12:49:00,83.2,76.0,30.01,NNE,13,11.5,11.5,79,0.00,CLR,,0.00,WeatherDisplay:10.37,2013-01-28 18:49:00,
2013-01-28 12:54:00,83.5,75.9,30.00,North,351,10.4,10.4,78,0.00,CLR,,0.00,WeatherDisplay:10.37,2013-01-28 18:54:00,
2013-01-28 12:59:00,83.6,76.0,30.00,NNE,13,12.7,12.7,78,0.00,CLR,,0.00,WeatherDisplay:10.37,2013-01-28 18:59:00,
2013-01-28 13:04:00,83.6,76.0,30.00,ENE,60,15.0,15.0,78,0.00,CLR,,0.00,WeatherDisplay:10.37,2013-01-28 19:04:00,
2013-01-28 13:09:00,83.6,76.0,30.00,ENE,77,11.5,11.5,78,0.00,CLR,,0.00,WeatherDisplay:10.37,2013-01-28 19:09:00,
2013-01-28 13:14:00,83.6,75.2,29.99,NNE,23,13.8,13.8,76,0.00,CLR,,0.00,WeatherDisplay:10.37,2013-01-28 19:14:00,
2013-01-28 13:19:00,83.4,75.4,29.99,NE,47,15.0,15.0,77,0.00,CLR,,0.00,WeatherDisplay:10.37,2013-01-28 19:19:00,
2013-01-28 13:24:00,83.3,75.7,29.99,ENE,70,11.5,11.5,78,0.00,CLR,,0.00,WeatherDisplay:10.37,2013-01-28 19:24:00,
2013-01-28 13:29:00,83.3,76.1,29.99,NE,43,15.0,15.0,79,0.00,CLR,,0.00,WeatherDisplay:10.37,2013-01-28 19:29:00,
2013-01-28 13:34:00,82.9,75.3,29.98,ENE,63,19.6,19.6,78,0.00,CLR,,0.00,WeatherDisplay:10.37,2013-01-28 19:34:00,
2013-01-28 13:39:00,83.3,75.7,29.98,NNE,29,11.0,11.0,78,0.00,CLR,,0.00,WeatherDisplay:10.37,2013-01-28 19:39:00,
2013-01-28 13:44:00,83.4,75.4,29.98,NE,46,11.5,11.5,77,0.00,CLR,,0.00,WeatherDisplay:10.37,2013-01-28 19:44:00,
2013-01-28 13:49:00,83.0,75.0,29.98,East,84,16.1,16.1,77,0.00,CLR,,0.00,WeatherDisplay:10.37,2013-01-28 19:49:00,
2013-01-28 13:54:00,83.2,74.4,29.98,ENE,57,13.8,13.8,75,0.00,CLR,,0.00,WeatherDisplay:10.37,2013-01-28 19:54:00,
2013-01-28 13:59:00,83.1,75.1,29.98,ENE,74,13.8,13.8,77,0.00,CLR,,0.00,WeatherDisplay:10.37,2013-01-28 19:59:00,
2013-01-28 14:04:00,83.4,75.0,29.98,NE,46,11.5,11.5,76,0.00,CLR,,0.00,WeatherDisplay:10.37,2013-01-28 20:04:00,
2013-01-28 14:09:00,83.3,74.5,29.97,NE,38,13.8,13.8,75,0.00,CLR,,0.00,WeatherDisplay:10.37,2013-01-28 20:09:00,
2013-01-28 14:14:00,83.4,74.2,29.97,ENE,63,13.8,13.8,74,0.00,CLR,,0.00,WeatherDisplay:10.37,2013-01-28 20:14:00,
2013-01-28 14:19:00,83.4,74.6,29.97,East,101,11.5,11.5,75,0.00,CLR,,0.00,WeatherDisplay:10.37,2013-01-28 20:19:00,
2013-01-28 14:24:00,83.2,74.0,29.97,NE,41,15.0,15.0,74,0.00,CLR,,0.00,WeatherDisplay:10.37,2013-01-28 20:24:00,
2013-01-28 14:29:00,83.5,74.7,29.97,North,8,13.8,13.8,75,0.00,CLR,,0.00,WeatherDisplay:10.37,2013-01-28 20:29:00,
2013-01-28 14:34:00,83.4,74.6,29.97,ENE,70,13.8,13.8,75,0.00,CLR,,0.00,WeatherDisplay:10.37,2013-01-28 20:34:00,
2013-01-28 14:39:00,83.3,74.9,29.97,NE,53,13.8,13.8,76,0.00,CLR,,0.00,WeatherDisplay:10.37,2013-01-28 20:39:00,
2013-01-28 14:44:00,83.3,74.9,29.97,ENE,65,11.5,11.5,76,0.00,CLR,,0.00,WeatherDisplay:10.37,2013-01-28 20:44:00,
2013-01-28 14:49:00,83.2,74.4,29.97,ENE,60,12.7,12.7,75,0.00,CLR,,0.00,WeatherDisplay:10.37,2013-01-28 20:49:00,
2013-01-28 14:54:00,83.3,74.5,29.97,East,79,12.7,12.7,75,0.00,CLR,,0.00,WeatherDisplay:10.37,2013-01-28 20:54:00,
2013-01-28 14:59:00,83.4,74.2,29.97,ENE,63,11.5,11.5,74,0.00,CLR,,0.00,WeatherDisplay:10.37,2013-01-28 20:59:00,
2013-01-28 15:04:00,83.2,74.4,29.96,NE,36,13.8,13.8,75,0.00,CLR,,0.00,WeatherDisplay:10.37,2013-01-28 21:04:00,
2013-01-28 15:09:00,83.4,74.6,29.96,NNE,17,11.5,11.5,75,0.00,CLR,,0.00,WeatherDisplay:10.37,2013-01-28 21:09:00,
2013-01-28 15:14:00,83.1,74.4,29.96,NE,54,19.6,19.6,75,0.00,CLR,,0.00,WeatherDisplay:10.37,2013-01-28 21:14:00,
2013-01-28 15:19:00,83.0,74.6,29.97,NW,321,12.7,12.7,76,0.00,CLR,,0.00,WeatherDisplay:10.37,2013-01-28 21:19:00,
2013-01-28 15:25:00,82.9,74.9,29.97,NE,49,13.8,13.8,77,0.00,CLR,,0.00,WeatherDisplay:10.37,2013-01-28 21:25:00,
2013-01-28 15:30:00,82.8,74.8,29.97,NE,55,10.0,17.0,77,0.00,CLR,,0.00,WeatherDisplay:10.37,2013-01-28 21:30:00,
2013-01-28 15:35:00,82.7,75.1,29.97,NE,44,12.0,12.0,78,0.00,CLR,,0.00,WeatherDisplay:10.37,2013-01-28 21:35:00,
2013-01-28 15:40:00,82.7,75.1,29.97,ENE,58,8.0,15.0,78,0.00,CLR,,0.00,WeatherDisplay:10.37,2013-01-28 21:40:00,
2013-01-28 15:45:00,82.6,75.0,29.97,NE,49,15.0,15.0,78,0.00,CLR,,0.00,WeatherDisplay:10.37,2013-01-28 21:45:00,
2013-01-28 15:50:00,82.5,74.9,29.97,NE,52,7.0,17.0,78,0.00,CLR,,0.00,WeatherDisplay:10.37,2013-01-28 21:50:00,
2013-01-28 15:55:00,82.5,74.9,29.97,NE,51,11.5,11.5,78,0.00,CLR,,0.00,WeatherDisplay:10.37,2013-01-28 21:55:00,
2013-01-28 16:00:00,82.5,75.3,29.97,ENE,59,10.0,10.0,79,0.00,CLR,,0.00,WeatherDisplay:10.37,2013-01-28 22:00:00,
2013-01-28 16:05:00,82.2,75.0,29.97,ENE,68,16.1,16.1,79,0.00,CLR,,0.00,WeatherDisplay:10.37,2013-01-28 22:05:00,
2013-01-28 16:10:00,82.2,75.4,29.97,ENE,62,8.0,15.0,80,0.00,CLR,,0.00,WeatherDisplay:10.37,2013-01-28 22:10:00,
2013-01-28 16:15:00,82.2,75.4,29.97,NE,42,15.0,15.0,80,0.00,CLR,,0.00,WeatherDisplay:10.37,2013-01-28 22:15:00,
2013-01-28 16:20:00,82.2,75.4,29.97,NE,52,7.0,14.0,80,0.00,CLR,,0.00,WeatherDisplay:10.37,2013-01-28 22:20:00,
2013-01-28 16:25:00,82.1,75.7,29.97,NE,42,6.0,17.0,81,0.00,CLR,,0.00,WeatherDisplay:10.37,2013-01-28 22:25:00,
2013-01-28 16:30:00,82.1,75.3,29.97,NE,39,6.0,15.0,80,0.00,CLR,,0.00,WeatherDisplay:10.37,2013-01-28 22:30:00,
2013-01-28 16:35:00,82.0,75.6,29.97,East,89,11.5,11.5,81,0.00,CLR,,0.00,WeatherDisplay:10.37,2013-01-28 22:35:00,
2013-01-28 16:40:00,82.0,75.6,29.97,NE,49,6.0,12.0,81,0.00,CLR,,0.00,WeatherDisplay:10.37,2013-01-28 22:40:00,
2013-01-28 16:45:00,81.9,75.5,29.97,NE,53,7.0,12.0,81,0.00,CLR,,0.00,WeatherDisplay:10.37,2013-01-28 22:45:00,
2013-01-28 16:50:00,81.9,75.9,29.97,East,96,12.0,12.0,82,0.00,CLR,,0.00,WeatherDisplay:10.37,2013-01-28 22:50:00,
2013-01-28 16:55:00,81.7,75.3,29.97,ESE,113,10.4,10.4,81,0.00,CLR,,0.00,WeatherDisplay:10.37,2013-01-28 22:55:00,
2013-01-28 17:00:00,81.5,75.5,29.97,ENE,70,12.7,12.7,82,0.00,CLR,,0.00,WeatherDisplay:10.37,2013-01-28 23:00:00,
2013-01-28 17:05:00,81.2,75.5,29.97,NNE,27,9.2,9.2,83,0.00,CLR,,0.00,WeatherDisplay:10.37,2013-01-28 23:05:00,
2013-01-28 17:10:00,81.1,75.8,29.97,ENE,57,8.0,13.0,84,0.00,CLR,,0.00,WeatherDisplay:10.37,2013-01-28 23:10:00,
2013-01-28 17:15:00,80.9,75.6,29.98,ENE,59,6.0,12.0,84,0.00,CLR,,0.00,WeatherDisplay:10.37,2013-01-28 23:15:00,
2013-01-28 17:20:00,80.8,75.5,29.98,NNE,24,11.5,11.5,84,0.00,CLR,,0.00,WeatherDisplay:10.37,2013-01-28 23:20:00,
2013-01-28 17:25:00,80.6,75.7,29.98,NE,41,3.0,15.0,85,0.00,CLR,,0.00,WeatherDisplay:10.37,2013-01-28 23:25:00,
2013-01-28 17:30:00,80.4,75.5,29.98,NE,46,8.1,8.1,85,0.00,CLR,,0.00,WeatherDisplay:10.37,2013-01-28 23:30:00,
2013-01-28 17:35:00,80.2,75.6,29.98,ENE,59,11.0,11.0,86,0.00,CLR,,0.00,WeatherDisplay:10.37,2013-01-28 23:35:00,
2013-01-28 17:40:00,80.1,75.5,29.98,NE,42,7.0,12.0,86,0.00,CLR,,0.00,WeatherDisplay:10.37,2013-01-28 23:40:00,
2013-01-28 17:45:00,80.0,75.8,29.98,NE,38,8.1,8.1,87,0.00,CLR,,0.00,WeatherDisplay:10.37,2013-01-28 23:45:00,
2013-01-28 17:50:00,80.0,75.4,29.98,ENE,68,6.9,6.9,86,0.00,CLR,,0.00,WeatherDisplay:10.37,2013-01-28 23:50:00,
2013-01-28 17:55:00,79.9,75.0,29.98,ENE,57,13.8,13.8,85,0.00,CLR,,0.00,WeatherDisplay:10.37,2013-01-28 23:55:00,
2013-01-28 18:00:00,80.0,75.1,29.98,NE,56,9.2,9.2,85,0.00,CLR,,0.00,WeatherDisplay:10.37,2013-01-29 00:00:00,
2013-01-28 18:05:00,80.0,75.1,29.98,NE,50,6.0,14.0,85,0.00,CLR,,0.00,WeatherDisplay:10.37,2013-01-29 00:05:00,
2013-01-28 18:10:00,80.0,75.4,29.98,NE,53,10.0,10.0,86,0.00,CLR,,0.00,WeatherDisplay:10.37,2013-01-29 00:10:00,
2013-01-28 18:15:00,80.0,75.4,29.98,ESE,102,9.2,9.2,86,0.00,CLR,,0.00,WeatherDisplay:10.37,2013-01-29 00:15:00,
2013-01-28 18:20:00,80.1,75.5,29.99,NE,50,7.0,13.0,86,0.00,CLR,,0.00,WeatherDisplay:10.37,2013-01-29 00:20:00,
2013-01-28 18:25:00,80.0,75.4,29.99,East,83,16.1,16.1,86,0.00,CLR,,0.00,WeatherDisplay:10.37,2013-01-29 00:25:00,
2013-01-28 18:30:00,80.1,75.5,29.99,NNE,20,15.0,15.0,86,0.00,CLR,,0.00,WeatherDisplay:10.37,2013-01-29 00:30:00,
2013-01-28 18:35:00,80.1,75.1,29.99,NE,43,9.0,17.0,85,0.00,CLR,,0.00,WeatherDisplay:10.37,2013-01-29 00:35:00,
2013-01-28 18:40:00,80.1,75.5,29.99,SE,137,11.5,11.5,86,0.00,CLR,,0.00,WeatherDisplay:10.37,2013-01-29 00:40:00,
2013-01-28 18:45:00,80.1,75.5,29.99,ENE,58,6.0,16.0,86,0.00,CLR,,0.00,WeatherDisplay:10.37,2013-01-29 00:45:00,
2013-01-28 18:50:00,80.0,75.4,29.99,NE,49,12.7,12.7,86,0.00,CLR,,0.00,WeatherDisplay:10.37,2013-01-29 00:50:00,
2013-01-28 18:55:00,80.1,75.9,29.99,ENE,75,8.1,8.1,87,0.00,CLR,,0.00,WeatherDisplay:10.37,2013-01-29 00:55:00,
2013-01-28 19:00:00,80.0,75.4,29.99,NE,49,11.5,11.5,86,0.00,CLR,,0.00,WeatherDisplay:10.37,2013-01-29 01:00:00,
2013-01-28 19:05:00,80.1,75.9,29.99,NE,53,11.5,11.5,87,0.00,CLR,,0.00,WeatherDisplay:10.37,2013-01-29 01:05:00,
2013-01-28 19:10:00,80.0,75.4,29.99,NE,47,19.6,19.6,86,0.00,CLR,,0.00,WeatherDisplay:10.37,2013-01-29 01:10:00,
2013-01-28 19:15:00,80.1,75.5,29.99,NE,51,7.0,17.0,86,0.00,CLR,,0.00,WeatherDisplay:10.37,2013-01-29 01:15:00,
2013-01-28 19:20:00,80.2,75.6,30.00,NNE,32,11.5,11.5,86,0.00,CLR,,0.00,WeatherDisplay:10.37,2013-01-29 01:20:00,
2013-01-28 19:25:00,80.2,75.6,30.00,ENE,62,7.0,13.0,86,0.00,CLR,,0.00,WeatherDisplay:10.37,2013-01-29 01:25:00,
2013-01-28 19:30:00,80.3,75.7,30.00,ENE,58,6.0,9.0,86,0.00,CLR,,0.00,WeatherDisplay:10.37,2013-01-29 01:30:00,
2013-01-28 19:35:00,80.3,75.7,30.00,NNE,20,12.7,12.7,86,0.00,CLR,,0.00,WeatherDisplay:10.37,2013-01-29 01:35:00,
2013-01-28 19:40:00,80.2,75.0,30.00,ENE,60,8.0,16.0,84,0.00,CLR,,0.00,WeatherDisplay:10.37,2013-01-29 01:40:00,
2013-01-28 19:45:00,80.3,75.0,30.00,ENE,70,10.0,17.0,84,0.00,CLR,,0.00,WeatherDisplay:10.37,2013-01-29 01:45:00,
2013-01-28 19:50:00,80.3,74.7,30.00,NE,54,12.7,12.7,83,0.00,CLR,,0.00,WeatherDisplay:10.37,2013-01-29 01:50:00,
2013-01-28 19:55:00,80.3,75.0,30.00,ENE,65,13.8,13.8,84,0.00,CLR,,0.00,WeatherDisplay:10.37,2013-01-29 01:55:00,
2013-01-28 20:00:00,80.2,74.9,30.00,NNE,13,17.3,17.3,84,0.00,CLR,,0.00,WeatherDisplay:10.37,2013-01-29 02:00:00,
2013-01-28 20:05:00,80.2,75.3,30.00,ENE,62,7.0,20.0,85,0.00,CLR,,0.00,WeatherDisplay:10.37,2013-01-29 02:05:00,
2013-01-28 20:10:00,80.2,74.9,30.00,ENE,60,12.0,18.0,84,0.00,CLR,,0.00,WeatherDisplay:10.37,2013-01-29 02:10:00,
2013-01-28 20:15:00,80.3,75.0,30.00,ENE,74,16.1,16.1,84,0.00,CLR,,0.00,WeatherDisplay:10.37,2013-01-29 02:15:00,
2013-01-28 20:20:00,80.3,75.4,30.00,NE,56,19.6,19.6,85,0.00,CLR,,0.00,WeatherDisplay:10.37,2013-01-29 02:20:00,
2013-01-28 20:25:00,80.3,75.4,30.00,ENE,68,7.0,20.0,85,0.00,CLR,,0.00,WeatherDisplay:10.37,2013-01-29 02:25:00,
2013-01-28 20:30:00,80.2,75.7,30.01,ENE,69,7.0,16.0,86,0.00,CLR,,0.00,WeatherDisplay:10.37,2013-01-29 02:30:00,
2013-01-28 20:35:00,80.2,75.6,30.01,East,96,13.8,13.8,86,0.00,CLR,,0.00,WeatherDisplay:10.37,2013-01-29 02:35:00,
2013-01-28 20:40:00,80.2,75.6,30.01,ENE,59,9.0,16.0,86,0.00,CLR,,0.00,WeatherDisplay:10.37,2013-01-29 02:40:00,
2013-01-28 20:45:00,80.2,75.6,30.01,ENE,69,6.0,18.0,86,0.00,CLR,,0.00,WeatherDisplay:10.37,2013-01-29 02:45:00,
2013-01-28 20:50:00,80.2,75.6,30.01,ENE,68,12.7,12.7,86,0.00,CLR,,0.00,WeatherDisplay:10.37,2013-01-29 02:50:00,
2013-01-28 20:55:00,80.2,76.0,30.01,ENE,60,11.0,11.0,87,0.00,CLR,,0.00,WeatherDisplay:10.37,2013-01-29 02:55:00,
2013-01-28 21:00:00,80.1,75.5,30.01,ENE,61,12.7,12.7,86,0.00,CLR,,0.00,WeatherDisplay:10.37,2013-01-29 03:00:00,
2013-01-28 21:05:00,80.2,76.0,30.01,ENE,64,7.0,20.0,87,0.00,CLR,,0.00,WeatherDisplay:10.37,2013-01-29 03:05:00,
2013-01-28 21:10:00,80.1,75.9,30.01,ENE,62,9.0,16.0,87,0.00,CLR,,0.00,WeatherDisplay:10.37,2013-01-29 03:10:00,
2013-01-28 21:15:00,80.1,75.9,30.01,East,98,15.0,15.0,87,0.00,CLR,,0.00,WeatherDisplay:10.37,2013-01-29 03:15:00,
2013-01-28 21:20:00,80.1,75.9,30.01,NE,56,8.0,18.0,87,0.00,CLR,,0.00,WeatherDisplay:10.37,2013-01-29 03:20:00,
2013-01-28 21:25:00,80.1,75.9,30.01,ENE,63,10.0,17.0,87,0.00,CLR,,0.00,WeatherDisplay:10.37,2013-01-29 03:25:00,
2013-01-28 21:30:00,80.1,75.9,30.01,East,91,13.0,13.0,87,0.00,CLR,,0.00,WeatherDisplay:10.37,2013-01-29 03:30:00,
2013-01-28 21:35:00,80.1,75.9,30.01,ENE,59,8.0,16.0,87,0.00,CLR,,0.00,WeatherDisplay:10.37,2013-01-29 03:35:00,
2013-01-28 21:40:00,80.1,75.9,30.01,ENE,59,8.0,17.0,87,0.00,CLR,,0.00,WeatherDisplay:10.37,2013-01-29 03:40:00,
2013-01-28 21:45:00,80.0,76.1,30.01,ENE,71,12.0,12.0,88,0.00,CLR,,0.00,WeatherDisplay:10.37,2013-01-29 03:45:00,
2013-01-28 21:50:00,80.0,76.1,30.01,ENE,70,9.0,18.0,88,0.00,CLR,,0.00,WeatherDisplay:10.37,2013-01-29 03:50:00,
2013-01-28 21:55:00,80.0,76.1,30.01,ENE,66,9.0,20.0,88,0.00,CLR,,0.00,WeatherDisplay:10.37,2013-01-29 03:55:00,
2013-01-28 22:00:00,80.0,76.1,30.01,ENE,68,6.0,17.0,88,0.00,CLR,,0.00,WeatherDisplay:10.37,2013-01-29 04:00:00,
2013-01-28 22:05:00,79.9,76.0,30.01,ENE,60,21.9,21.9,88,0.00,CLR,,0.00,WeatherDisplay:10.37,2013-01-29 04:05:00,
2013-01-28 22:10:00,80.0,76.1,30.01,NE,56,17.3,17.3,88,0.00,CLR,,0.00,WeatherDisplay:10.37,2013-01-29 04:10:00,
2013-01-28 22:15:00,79.9,76.0,30.01,ENE,61,10.0,20.0,88,0.00,CLR,,0.00,WeatherDisplay:10.37,2013-01-29 04:15:00,
2013-01-28 22:20:00,79.9,76.0,30.01,ENE,61,10.0,20.0,88,0.00,CLR,,0.00,WeatherDisplay:10.37,2013-01-29 04:20:00,
2013-01-28 22:25:00,79.9,76.0,30.01,NNE,27,12.7,12.7,88,0.00,CLR,,0.00,WeatherDisplay:10.37,2013-01-29 04:25:00,
2013-01-28 22:30:00,79.9,76.4,30.01,ENE,68,10.0,15.0,89,0.00,CLR,,0.00,WeatherDisplay:10.37,2013-01-29 04:30:00,
2013-01-28 22:35:00,79.8,76.3,30.01,ENE,57,15.0,15.0,89,0.00,CLR,,0.00,WeatherDisplay:10.37,2013-01-29 04:35:00,
2013-01-28 22:40:00,79.8,76.3,30.01,East,93,13.8,13.8,89,0.00,CLR,,0.00,WeatherDisplay:10.37,2013-01-29 04:40:00,
2013-01-28 22:45:00,79.8,76.3,30.01,NE,40,12.0,12.0,89,0.00,CLR,,0.00,WeatherDisplay:10.37,2013-01-29 04:45:00,
2013-01-28 22:50:00,79.8,76.3,30.00,NE,47,13.8,13.8,89,0.00,CLR,,0.00,WeatherDisplay:10.37,2013-01-29 04:50:00,
2013-01-28 22:55:00,79.7,76.2,30.00,East,81,15.0,15.0,89,0.00,CLR,,0.00,WeatherDisplay:10.37,2013-01-29 04:55:00,
2013-01-28 23:00:00,83.5,71.8,29.97,ENE,68,7.0,16.0,68,0.00,CLR,,0.00,WeatherDisplay:10.37,2013-01-29 05:00:00,
2013-01-28 23:01:00,79.8,76.3,30.00,ENE,72,9.2,9.2,89,0.00,CLR,,0.00,WeatherDisplay:10.37,2013-01-29 05:01:00,
2013-01-28 23:03:00,79.8,76.3,30.00,NE,40,16.1,16.1,89,0.00,CLR,,0.00,WeatherDisplay:10.37,2013-01-29 05:03:00,
2013-01-28 23:05:00,83.9,73.1,29.95,ENE,68,8.0,14.0,70,0.00,CLR,,0.00,WeatherDisplay:10.37,2013-01-29 05:05:00,
2013-01-28 23:08:00,79.8,76.3,30.00,ENE,68,12.7,12.7,89,0.00,CLR,,0.00,WeatherDisplay:10.37,2013-01-29 05:08:00,
2013-01-28 23:10:00,83.9,73.1,29.95,ENE,68,8.0,14.0,70,0.00,CLR,,0.00,WeatherDisplay:10.37,2013-01-29 05:10:00,
2013-01-28 23:13:00,79.7,75.8,30.00,NE,49,15.0,15.0,88,0.00,CLR,,0.00,WeatherDisplay:10.37,2013-01-29 05:13:00,
2013-01-28 23:15:00,83.9,73.1,29.95,ENE,68,8.0,14.0,70,0.00,CLR,,0.00,WeatherDisplay:10.37,2013-01-29 05:15:00,
2013-01-28 23:18:00,79.7,75.8,30.00,ENE,70,18.4,18.4,88,0.00,CLR,,0.00,WeatherDisplay:10.37,2013-01-29 05:18:00,
2013-01-28 23:20:00,83.9,73.1,29.95,ENE,68,8.0,14.0,70,0.00,CLR,,0.00,WeatherDisplay:10.37,2013-01-29 05:20:00,
2013-01-28 23:23:00,79.7,75.8,30.00,ENE,74,11.5,11.5,88,0.00,CLR,,0.00,WeatherDisplay:10.37,2013-01-29 05:23:00,
2013-01-28 23:25:00,83.9,73.1,29.95,ENE,68,8.0,14.0,70,0.00,CLR,,0.00,WeatherDisplay:10.37,2013-01-29 05:25:00,
2013-01-28 23:28:00,79.7,76.2,29.99,NE,34,13.8,13.8,89,0.00,CLR,,0.00,WeatherDisplay:10.37,2013-01-29 05:28:00,
2013-01-28 23:30:00,83.9,73.1,29.95,ENE,68,8.0,14.0,70,0.00,CLR,,0.00,WeatherDisplay:10.37,2013-01-29 05:30:00,
2013-01-28 23:33:00,79.7,75.8,29.99,East,86,19.6,19.6,88,0.00,CLR,,0.00,WeatherDisplay:10.37,2013-01-29 05:33:00,
2013-01-28 23:38:00,79.7,75.8,29.99,ENE,69,13.8,13.8,88,0.00,CLR,,0.00,WeatherDisplay:10.37,2013-01-29 05:38:00,
2013-01-28 23:43:00,79.7,75.8,29.99,ENE,67,16.1,16.1,88,0.00,CLR,,0.00,WeatherDisplay:10.37,2013-01-29 05:43:00,
2013-01-28 23:48:00,79.7,75.8,29.99,NE,40,13.8,13.8,88,0.00,CLR,,0.00,WeatherDisplay:10.37,2013-01-29 05:48:00,
2013-01-28 23:53:00,79.6,75.7,29.99,NE,54,11.5,11.5,88,0.00,CLR,,0.00,WeatherDisplay:10.37,2013-01-29 05:53:00,
2013-01-28 23:58:00,79.6,75.7,29.98,NE,53,16.1,16.1,88,0.00,CLR,,0.00,WeatherDisplay:10.37,2013-01-29 05:58:00,